sensor_id;sensor_type;location;lat;lon;timestamp;P1;durP1;ratioP1;P2;durP2;ratioP2
66353;SDS011;53150;48.296;16.452;2022-12-18T00:00:47;13.65;;;6.57;;
66353;SDS011;53150;48.296;16.452;2022-12-18T00:03:14;13.00;;;6.50;;
66353;SDS011;53150;48.296;16.452;2022-12-18T00:05:50;12.23;;;5.63;;
66353;SDS011;53150;48.296;16.452;2022-12-18T00:08:16;13.90;;;5.65;;
66353;SDS011;53150;48.296;16.452;2022-12-18T00:10:42;10.82;;;5.57;;
66353;SDS011;53150;48.296;16.452;2022-12-18T00:13:09;13.02;;;6.45;;
66353;SDS011;53150;48.296;16.452;2022-12-18T00:15:35;13.27;;;6.03;;
66353;SDS011;53150;48.296;16.452;2022-12-18T00:18:02;11.73;;;5.28;;
66353;SDS011;53150;48.296;16.452;2022-12-18T00:20:28;12.45;;;6.03;;
66353;SDS011;53150;48.296;16.452;2022-12-18T00:22:54;14.10;;;6.10;;
66353;SDS011;53150;48.296;16.452;2022-12-18T00:25:20;11.10;;;5.97;;
66353;SDS011;53150;48.296;16.452;2022-12-18T00:27:46;13.88;;;6.72;;
66353;SDS011;53150;48.296;16.452;2022-12-18T00:30:13;12.75;;;6.03;;
66353;SDS011;53150;48.296;16.452;2022-12-18T00:32:39;12.77;;;6.30;;
66353;SDS011;53150;48.296;16.452;2022-12-18T00:35:07;12.45;;;6.35;;
66353;SDS011;53150;48.296;16.452;2022-12-18T00:37:33;13.27;;;5.60;;
66353;SDS011;53150;48.296;16.452;2022-12-18T00:40:00;10.90;;;5.68;;
66353;SDS011;53150;48.296;16.452;2022-12-18T00:42:26;14.38;;;6.72;;
66353;SDS011;53150;48.296;16.452;2022-12-18T00:45:11;13.77;;;5.32;;
66353;SDS011;53150;48.296;16.452;2022-12-18T00:47:37;9.10;;;5.38;;
66353;SDS011;53150;48.296;16.452;2022-12-18T00:50:03;11.30;;;5.35;;
66353;SDS011;53150;48.296;16.452;2022-12-18T00:52:29;12.63;;;6.03;;
66353;SDS011;53150;48.296;16.452;2022-12-18T00:54:55;12.00;;;5.57;;
66353;SDS011;53150;48.296;16.452;2022-12-18T00:57:21;12.43;;;5.35;;
66353;SDS011;53150;48.296;16.452;2022-12-18T00:59:48;9.90;;;5.70;;
66353;SDS011;53150;48.296;16.452;2022-12-18T01:02:14;10.07;;;5.40;;
66353;SDS011;53150;48.296;16.452;2022-12-18T01:04:40;16.15;;;6.88;;
66353;SDS011;53150;48.296;16.452;2022-12-18T01:07:06;12.90;;;5.72;;
66353;SDS011;53150;48.296;16.452;2022-12-18T01:09:32;12.93;;;6.18;;
66353;SDS011;53150;48.296;16.452;2022-12-18T01:11:58;11.45;;;6.35;;
66353;SDS011;53150;48.296;16.452;2022-12-18T01:14:24;11.82;;;6.25;;
66353;SDS011;53150;48.296;16.452;2022-12-18T01:16:50;13.00;;;6.30;;
66353;SDS011;53150;48.296;16.452;2022-12-18T01:19:16;13.00;;;6.50;;
66353;SDS011;53150;48.296;16.452;2022-12-18T01:21:42;14.98;;;6.55;;
66353;SDS011;53150;48.296;16.452;2022-12-18T01:24:09;13.50;;;6.30;;
66353;SDS011;53150;48.296;16.452;2022-12-18T01:26:37;12.73;;;5.97;;
66353;SDS011;53150;48.296;16.452;2022-12-18T01:29:03;12.95;;;6.15;;
66353;SDS011;53150;48.296;16.452;2022-12-18T01:31:30;15.98;;;6.85;;
66353;SDS011;53150;48.296;16.452;2022-12-18T01:33:57;15.57;;;6.97;;
66353;SDS011;53150;48.296;16.452;2022-12-18T01:36:26;16.88;;;7.22;;
66353;SDS011;53150;48.296;16.452;2022-12-18T01:38:52;12.77;;;6.88;;
66353;SDS011;53150;48.296;16.452;2022-12-18T01:41:22;15.98;;;7.30;;
66353;SDS011;53150;48.296;16.452;2022-12-18T01:43:56;14.73;;;6.82;;
66353;SDS011;53150;48.296;16.452;2022-12-18T01:46:23;14.57;;;7.10;;
66353;SDS011;53150;48.296;16.452;2022-12-18T01:48:51;15.50;;;7.65;;
66353;SDS011;53150;48.296;16.452;2022-12-18T01:51:18;13.02;;;7.30;;
66353;SDS011;53150;48.296;16.452;2022-12-18T01:53:44;15.32;;;6.85;;
66353;SDS011;53150;48.296;16.452;2022-12-18T01:56:17;11.20;;;6.30;;
66353;SDS011;53150;48.296;16.452;2022-12-18T01:58:55;13.43;;;7.25;;
66353;SDS011;53150;48.296;16.452;2022-12-18T02:01:24;13.57;;;6.97;;
66353;SDS011;53150;48.296;16.452;2022-12-18T02:03:51;12.88;;;6.88;;
66353;SDS011;53150;48.296;16.452;2022-12-18T02:06:28;11.82;;;6.28;;
66353;SDS011;53150;48.296;16.452;2022-12-18T02:09:02;15.80;;;8.05;;
66353;SDS011;53150;48.296;16.452;2022-12-18T02:16:43;13.35;;;6.95;;
66353;SDS011;53150;48.296;16.452;2022-12-18T02:21:57;12.43;;;6.13;;
66353;SDS011;53150;48.296;16.452;2022-12-18T02:24:31;15.65;;;7.53;;
66353;SDS011;53150;48.296;16.452;2022-12-18T02:27:01;14.63;;;6.57;;
66353;SDS011;53150;48.296;16.452;2022-12-18T02:29:39;15.40;;;7.03;;
66353;SDS011;53150;48.296;16.452;2022-12-18T02:32:07;13.52;;;7.22;;
66353;SDS011;53150;48.296;16.452;2022-12-18T02:34:37;13.68;;;7.55;;
66353;SDS011;53150;48.296;16.452;2022-12-18T02:37:05;14.50;;;6.53;;
66353;SDS011;53150;48.296;16.452;2022-12-18T02:39:32;13.50;;;6.22;;
66353;SDS011;53150;48.296;16.452;2022-12-18T02:41:59;13.30;;;6.47;;
66353;SDS011;53150;48.296;16.452;2022-12-18T02:44:27;13.43;;;7.68;;
66353;SDS011;53150;48.296;16.452;2022-12-18T02:46:53;15.98;;;6.63;;
66353;SDS011;53150;48.296;16.452;2022-12-18T02:49:36;11.60;;;6.47;;
66353;SDS011;53150;48.296;16.452;2022-12-18T02:54:37;14.68;;;6.32;;
66353;SDS011;53150;48.296;16.452;2022-12-18T02:57:19;14.57;;;7.75;;
66353;SDS011;53150;48.296;16.452;2022-12-18T02:59:53;14.18;;;6.63;;
66353;SDS011;53150;48.296;16.452;2022-12-18T03:02:25;16.42;;;8.02;;
66353;SDS011;53150;48.296;16.452;2022-12-18T03:04:55;17.10;;;7.32;;
66353;SDS011;53150;48.296;16.452;2022-12-18T03:07:28;19.52;;;8.95;;
66353;SDS011;53150;48.296;16.452;2022-12-18T03:09:58;18.40;;;8.48;;
66353;SDS011;53150;48.296;16.452;2022-12-18T03:12:32;13.38;;;7.82;;
66353;SDS011;53150;48.296;16.452;2022-12-18T03:17:30;17.65;;;9.05;;
66353;SDS011;53150;48.296;16.452;2022-12-18T03:19:58;18.58;;;9.88;;
66353;SDS011;53150;48.296;16.452;2022-12-18T03:22:24;14.13;;;6.95;;
66353;SDS011;53150;48.296;16.452;2022-12-18T03:24:51;20.77;;;8.93;;
66353;SDS011;53150;48.296;16.452;2022-12-18T03:27:19;23.13;;;9.35;;
66353;SDS011;53150;48.296;16.452;2022-12-18T03:29:54;18.83;;;9.57;;
66353;SDS011;53150;48.296;16.452;2022-12-18T03:32:25;23.23;;;10.27;;
66353;SDS011;53150;48.296;16.452;2022-12-18T03:34:53;16.40;;;8.15;;
66353;SDS011;53150;48.296;16.452;2022-12-18T03:37:21;18.73;;;8.93;;
66353;SDS011;53150;48.296;16.452;2022-12-18T03:39:47;21.80;;;10.35;;
66353;SDS011;53150;48.296;16.452;2022-12-18T03:47:07;19.13;;;8.93;;
66353;SDS011;53150;48.296;16.452;2022-12-18T03:49:39;22.35;;;9.13;;
66353;SDS011;53150;48.296;16.452;2022-12-18T03:52:24;17.17;;;8.80;;
66353;SDS011;53150;48.296;16.452;2022-12-18T03:54:52;16.35;;;7.55;;
66353;SDS011;53150;48.296;16.452;2022-12-18T03:57:21;20.35;;;8.20;;
66353;SDS011;53150;48.296;16.452;2022-12-18T03:59:49;18.85;;;8.70;;
66353;SDS011;53150;48.296;16.452;2022-12-18T04:02:16;15.93;;;9.25;;
66353;SDS011;53150;48.296;16.452;2022-12-18T04:04:43;17.15;;;9.40;;
66353;SDS011;53150;48.296;16.452;2022-12-18T04:07:10;16.23;;;7.97;;
66353;SDS011;53150;48.296;16.452;2022-12-18T04:09:37;14.25;;;7.35;;
66353;SDS011;53150;48.296;16.452;2022-12-18T04:12:04;24.38;;;9.65;;
66353;SDS011;53150;48.296;16.452;2022-12-18T04:14:31;20.48;;;10.75;;
66353;SDS011;53150;48.296;16.452;2022-12-18T04:17:00;17.98;;;8.75;;
66353;SDS011;53150;48.296;16.452;2022-12-18T04:19:27;18.83;;;8.55;;
66353;SDS011;53150;48.296;16.452;2022-12-18T04:21:53;18.00;;;9.20;;
66353;SDS011;53150;48.296;16.452;2022-12-18T04:24:19;13.65;;;7.80;;
66353;SDS011;53150;48.296;16.452;2022-12-18T04:26:45;13.65;;;7.80;;
66353;SDS011;53150;48.296;16.452;2022-12-18T04:29:11;17.55;;;8.88;;
66353;SDS011;53150;48.296;16.452;2022-12-18T04:31:38;17.98;;;8.23;;
66353;SDS011;53150;48.296;16.452;2022-12-18T04:34:04;18.70;;;8.65;;
66353;SDS011;53150;48.296;16.452;2022-12-18T04:36:30;17.30;;;7.55;;
66353;SDS011;53150;48.296;16.452;2022-12-18T04:38:56;17.75;;;9.18;;
66353;SDS011;53150;48.296;16.452;2022-12-18T04:41:22;18.48;;;9.10;;
66353;SDS011;53150;48.296;16.452;2022-12-18T04:43:48;18.08;;;9.50;;
66353;SDS011;53150;48.296;16.452;2022-12-18T04:46:14;19.60;;;7.82;;
66353;SDS011;53150;48.296;16.452;2022-12-18T04:48:40;19.70;;;8.82;;
66353;SDS011;53150;48.296;16.452;2022-12-18T04:51:07;19.67;;;8.15;;
66353;SDS011;53150;48.296;16.452;2022-12-18T04:53:33;18.88;;;8.93;;
66353;SDS011;53150;48.296;16.452;2022-12-18T04:56:03;17.58;;;8.75;;
66353;SDS011;53150;48.296;16.452;2022-12-18T04:58:29;18.50;;;8.93;;
66353;SDS011;53150;48.296;16.452;2022-12-18T05:00:55;20.85;;;9.13;;
66353;SDS011;53150;48.296;16.452;2022-12-18T05:03:21;18.75;;;10.10;;
66353;SDS011;53150;48.296;16.452;2022-12-18T05:05:51;18.98;;;8.73;;
66353;SDS011;53150;48.296;16.452;2022-12-18T05:08:17;20.00;;;8.60;;
66353;SDS011;53150;48.296;16.452;2022-12-18T05:10:43;14.57;;;8.15;;
66353;SDS011;53150;48.296;16.452;2022-12-18T05:13:09;15.00;;;8.32;;
66353;SDS011;53150;48.296;16.452;2022-12-18T05:15:35;17.15;;;8.43;;
66353;SDS011;53150;48.296;16.452;2022-12-18T05:18:02;17.63;;;8.98;;
66353;SDS011;53150;48.296;16.452;2022-12-18T05:20:28;19.23;;;8.90;;
66353;SDS011;53150;48.296;16.452;2022-12-18T05:22:55;20.45;;;9.60;;
66353;SDS011;53150;48.296;16.452;2022-12-18T05:25:21;16.42;;;7.80;;
66353;SDS011;53150;48.296;16.452;2022-12-18T05:27:47;12.55;;;7.53;;
66353;SDS011;53150;48.296;16.452;2022-12-18T05:30:14;17.23;;;8.13;;
66353;SDS011;53150;48.296;16.452;2022-12-18T05:32:40;13.93;;;8.52;;
66353;SDS011;53150;48.296;16.452;2022-12-18T05:35:07;20.05;;;9.68;;
66353;SDS011;53150;48.296;16.452;2022-12-18T05:37:33;15.90;;;8.85;;
66353;SDS011;53150;48.296;16.452;2022-12-18T05:40:00;18.33;;;9.70;;
66353;SDS011;53150;48.296;16.452;2022-12-18T05:42:26;20.77;;;9.73;;
66353;SDS011;53150;48.296;16.452;2022-12-18T05:44:52;20.23;;;8.95;;
66353;SDS011;53150;48.296;16.452;2022-12-18T05:47:18;15.23;;;9.02;;
66353;SDS011;53150;48.296;16.452;2022-12-18T05:49:44;19.52;;;9.95;;
66353;SDS011;53150;48.296;16.452;2022-12-18T05:52:10;14.85;;;7.43;;
66353;SDS011;53150;48.296;16.452;2022-12-18T05:54:36;20.52;;;8.25;;
66353;SDS011;53150;48.296;16.452;2022-12-18T05:57:02;18.05;;;8.98;;
66353;SDS011;53150;48.296;16.452;2022-12-18T05:59:28;17.92;;;8.93;;
66353;SDS011;53150;48.296;16.452;2022-12-18T06:01:54;15.55;;;8.30;;
66353;SDS011;53150;48.296;16.452;2022-12-18T06:04:20;17.02;;;8.40;;
66353;SDS011;53150;48.296;16.452;2022-12-18T06:06:46;18.02;;;8.95;;
66353;SDS011;53150;48.296;16.452;2022-12-18T06:09:12;16.05;;;8.65;;
66353;SDS011;53150;48.296;16.452;2022-12-18T06:11:38;15.80;;;7.63;;
66353;SDS011;53150;48.296;16.452;2022-12-18T06:14:05;23.02;;;9.50;;
66353;SDS011;53150;48.296;16.452;2022-12-18T06:16:31;22.95;;;9.45;;
66353;SDS011;53150;48.296;16.452;2022-12-18T06:18:58;14.48;;;7.30;;
66353;SDS011;53150;48.296;16.452;2022-12-18T06:21:25;21.77;;;9.80;;
66353;SDS011;53150;48.296;16.452;2022-12-18T06:23:51;20.02;;;9.60;;
66353;SDS011;53150;48.296;16.452;2022-12-18T06:26:18;17.23;;;8.55;;
66353;SDS011;53150;48.296;16.452;2022-12-18T06:28:44;16.85;;;7.90;;
66353;SDS011;53150;48.296;16.452;2022-12-18T06:31:10;15.90;;;9.68;;
66353;SDS011;53150;48.296;16.452;2022-12-18T06:33:36;15.27;;;9.57;;
66353;SDS011;53150;48.296;16.452;2022-12-18T06:36:07;19.08;;;8.50;;
66353;SDS011;53150;48.296;16.452;2022-12-18T06:38:33;29.80;;;10.73;;
66353;SDS011;53150;48.296;16.452;2022-12-18T06:40:59;24.08;;;8.77;;
66353;SDS011;53150;48.296;16.452;2022-12-18T06:43:26;16.25;;;9.10;;
66353;SDS011;53150;48.296;16.452;2022-12-18T06:45:57;19.08;;;8.00;;
66353;SDS011;53150;48.296;16.452;2022-12-18T06:48:23;19.05;;;8.68;;
66353;SDS011;53150;48.296;16.452;2022-12-18T06:50:49;24.15;;;9.55;;
66353;SDS011;53150;48.296;16.452;2022-12-18T06:53:16;19.88;;;8.95;;
66353;SDS011;53150;48.296;16.452;2022-12-18T06:55:43;17.30;;;8.43;;
66353;SDS011;53150;48.296;16.452;2022-12-18T06:58:09;18.40;;;9.98;;
66353;SDS011;53150;48.296;16.452;2022-12-18T07:00:35;17.65;;;9.07;;
66353;SDS011;53150;48.296;16.452;2022-12-18T07:03:01;20.13;;;10.15;;
66353;SDS011;53150;48.296;16.452;2022-12-18T07:05:27;16.95;;;8.75;;
66353;SDS011;53150;48.296;16.452;2022-12-18T07:07:53;16.63;;;8.70;;
66353;SDS011;53150;48.296;16.452;2022-12-18T07:10:19;22.83;;;9.73;;
66353;SDS011;53150;48.296;16.452;2022-12-18T07:12:45;17.80;;;10.32;;
66353;SDS011;53150;48.296;16.452;2022-12-18T07:15:11;15.93;;;8.25;;
66353;SDS011;53150;48.296;16.452;2022-12-18T07:17:37;23.27;;;10.70;;
66353;SDS011;53150;48.296;16.452;2022-12-18T07:20:03;19.38;;;9.05;;
66353;SDS011;53150;48.296;16.452;2022-12-18T07:22:30;21.25;;;9.00;;
66353;SDS011;53150;48.296;16.452;2022-12-18T07:24:56;16.77;;;8.13;;
66353;SDS011;53150;48.296;16.452;2022-12-18T07:27:22;21.17;;;8.00;;
66353;SDS011;53150;48.296;16.452;2022-12-18T07:29:48;26.58;;;10.68;;
66353;SDS011;53150;48.296;16.452;2022-12-18T07:32:14;16.88;;;9.02;;
66353;SDS011;53150;48.296;16.452;2022-12-18T07:34:40;22.00;;;10.65;;
66353;SDS011;53150;48.296;16.452;2022-12-18T07:37:06;12.98;;;7.20;;
66353;SDS011;53150;48.296;16.452;2022-12-18T07:39:32;15.30;;;8.90;;
66353;SDS011;53150;48.296;16.452;2022-12-18T07:41:58;21.00;;;10.07;;
66353;SDS011;53150;48.296;16.452;2022-12-18T07:44:43;21.67;;;10.02;;
66353;SDS011;53150;48.296;16.452;2022-12-18T07:47:09;19.55;;;9.80;;
66353;SDS011;53150;48.296;16.452;2022-12-18T07:49:35;18.48;;;8.68;;
66353;SDS011;53150;48.296;16.452;2022-12-18T07:52:01;20.50;;;8.82;;
66353;SDS011;53150;48.296;16.452;2022-12-18T07:54:28;18.25;;;8.68;;
66353;SDS011;53150;48.296;16.452;2022-12-18T07:56:54;20.58;;;9.30;;
66353;SDS011;53150;48.296;16.452;2022-12-18T07:59:20;21.75;;;10.23;;
66353;SDS011;53150;48.296;16.452;2022-12-18T08:01:48;22.05;;;9.32;;
66353;SDS011;53150;48.296;16.452;2022-12-18T08:04:15;21.38;;;10.88;;
66353;SDS011;53150;48.296;16.452;2022-12-18T08:06:41;18.83;;;10.73;;
66353;SDS011;53150;48.296;16.452;2022-12-18T08:09:08;26.55;;;10.35;;
66353;SDS011;53150;48.296;16.452;2022-12-18T08:11:35;24.02;;;11.10;;
66353;SDS011;53150;48.296;16.452;2022-12-18T08:14:01;29.60;;;14.35;;
66353;SDS011;53150;48.296;16.452;2022-12-18T08:16:27;31.33;;;15.82;;
66353;SDS011;53150;48.296;16.452;2022-12-18T08:18:53;30.23;;;17.55;;
66353;SDS011;53150;48.296;16.452;2022-12-18T08:21:26;27.00;;;12.70;;
66353;SDS011;53150;48.296;16.452;2022-12-18T08:23:53;19.63;;;11.00;;
66353;SDS011;53150;48.296;16.452;2022-12-18T08:26:19;26.35;;;10.88;;
66353;SDS011;53150;48.296;16.452;2022-12-18T08:28:46;20.98;;;11.20;;
66353;SDS011;53150;48.296;16.452;2022-12-18T08:31:12;25.70;;;11.57;;
66353;SDS011;53150;48.296;16.452;2022-12-18T08:33:38;24.17;;;12.63;;
66353;SDS011;53150;48.296;16.452;2022-12-18T08:36:05;38.88;;;16.27;;
66353;SDS011;53150;48.296;16.452;2022-12-18T08:38:31;40.05;;;18.98;;
66353;SDS011;53150;48.296;16.452;2022-12-18T08:40:58;55.72;;;24.42;;
66353;SDS011;53150;48.296;16.452;2022-12-18T08:43:25;71.55;;;31.55;;
66353;SDS011;53150;48.296;16.452;2022-12-18T08:46:10;43.40;;;20.13;;
66353;SDS011;53150;48.296;16.452;2022-12-18T08:48:36;44.03;;;18.27;;
66353;SDS011;53150;48.296;16.452;2022-12-18T08:51:02;23.73;;;12.30;;
66353;SDS011;53150;48.296;16.452;2022-12-18T08:53:28;33.25;;;14.32;;
66353;SDS011;53150;48.296;16.452;2022-12-18T08:55:55;27.15;;;12.13;;
66353;SDS011;53150;48.296;16.452;2022-12-18T08:58:21;24.88;;;10.93;;
66353;SDS011;53150;48.296;16.452;2022-12-18T09:00:48;23.75;;;10.85;;
66353;SDS011;53150;48.296;16.452;2022-12-18T09:03:14;24.02;;;11.52;;
66353;SDS011;53150;48.296;16.452;2022-12-18T09:05:40;20.05;;;10.30;;
66353;SDS011;53150;48.296;16.452;2022-12-18T09:08:06;25.45;;;12.40;;
66353;SDS011;53150;48.296;16.452;2022-12-18T09:10:33;23.58;;;12.40;;
66353;SDS011;53150;48.296;16.452;2022-12-18T09:12:59;24.08;;;11.60;;
66353;SDS011;53150;48.296;16.452;2022-12-18T09:15:25;25.98;;;12.07;;
66353;SDS011;53150;48.296;16.452;2022-12-18T09:17:51;30.27;;;13.32;;
66353;SDS011;53150;48.296;16.452;2022-12-18T09:20:18;47.10;;;19.15;;
66353;SDS011;53150;48.296;16.452;2022-12-18T09:22:44;42.40;;;17.08;;
66353;SDS011;53150;48.296;16.452;2022-12-18T09:25:10;33.42;;;14.90;;
66353;SDS011;53150;48.296;16.452;2022-12-18T09:27:36;40.67;;;15.73;;
66353;SDS011;53150;48.296;16.452;2022-12-18T09:30:02;46.17;;;16.77;;
66353;SDS011;53150;48.296;16.452;2022-12-18T09:32:28;34.50;;;14.63;;
66353;SDS011;53150;48.296;16.452;2022-12-18T09:34:54;31.10;;;13.98;;
66353;SDS011;53150;48.296;16.452;2022-12-18T09:37:20;29.42;;;14.20;;
66353;SDS011;53150;48.296;16.452;2022-12-18T09:39:46;33.63;;;13.85;;
66353;SDS011;53150;48.296;16.452;2022-12-18T09:42:15;30.08;;;14.82;;
66353;SDS011;53150;48.296;16.452;2022-12-18T09:44:44;28.70;;;12.48;;
66353;SDS011;53150;48.296;16.452;2022-12-18T09:47:25;21.75;;;10.60;;
66353;SDS011;53150;48.296;16.452;2022-12-18T09:49:55;23.45;;;11.02;;
66353;SDS011;53150;48.296;16.452;2022-12-18T09:52:24;24.42;;;11.30;;
66353;SDS011;53150;48.296;16.452;2022-12-18T09:54:53;25.98;;;13.05;;
66353;SDS011;53150;48.296;16.452;2022-12-18T09:57:21;25.30;;;11.75;;
66353;SDS011;53150;48.296;16.452;2022-12-18T09:59:50;28.23;;;10.85;;
66353;SDS011;53150;48.296;16.452;2022-12-18T10:02:26;24.92;;;12.70;;
66353;SDS011;53150;48.296;16.452;2022-12-18T10:07:27;23.73;;;13.73;;
66353;SDS011;53150;48.296;16.452;2022-12-18T10:12:40;27.42;;;11.00;;
66353;SDS011;53150;48.296;16.452;2022-12-18T10:15:14;23.77;;;12.20;;
66353;SDS011;53150;48.296;16.452;2022-12-18T10:20:31;26.70;;;11.93;;
66353;SDS011;53150;48.296;16.452;2022-12-18T10:25:43;24.75;;;9.73;;
66353;SDS011;53150;48.296;16.452;2022-12-18T10:28:13;20.48;;;10.63;;
66353;SDS011;53150;48.296;16.452;2022-12-18T10:30:40;25.98;;;12.25;;
66353;SDS011;53150;48.296;16.452;2022-12-18T10:33:08;23.27;;;11.23;;
66353;SDS011;53150;48.296;16.452;2022-12-18T10:35:37;22.98;;;11.20;;
66353;SDS011;53150;48.296;16.452;2022-12-18T10:40:49;19.20;;;11.18;;
66353;SDS011;53150;48.296;16.452;2022-12-18T10:43:15;18.98;;;10.35;;
66353;SDS011;53150;48.296;16.452;2022-12-18T10:45:42;20.20;;;11.00;;
66353;SDS011;53150;48.296;16.452;2022-12-18T10:48:21;22.27;;;11.00;;
66353;SDS011;53150;48.296;16.452;2022-12-18T10:50:48;26.52;;;11.35;;
66353;SDS011;53150;48.296;16.452;2022-12-18T10:53:22;24.88;;;10.75;;
66353;SDS011;53150;48.296;16.452;2022-12-18T10:55:48;21.83;;;11.90;;
66353;SDS011;53150;48.296;16.452;2022-12-18T10:58:28;24.73;;;12.55;;
66353;SDS011;53150;48.296;16.452;2022-12-18T11:01:07;42.58;;;13.23;;
66353;SDS011;53150;48.296;16.452;2022-12-18T11:03:34;31.02;;;12.93;;
66353;SDS011;53150;48.296;16.452;2022-12-18T11:06:14;20.77;;;11.00;;
66353;SDS011;53150;48.296;16.452;2022-12-18T11:08:41;21.92;;;10.27;;
66353;SDS011;53150;48.296;16.452;2022-12-18T11:11:28;23.27;;;10.73;;
66353;SDS011;53150;48.296;16.452;2022-12-18T11:14:06;22.17;;;11.68;;
66353;SDS011;53150;48.296;16.452;2022-12-18T11:16:45;24.02;;;11.90;;
66353;SDS011;53150;48.296;16.452;2022-12-18T11:21:41;18.48;;;9.75;;
66353;SDS011;53150;48.296;16.452;2022-12-18T11:24:14;24.50;;;11.60;;
66353;SDS011;53150;48.296;16.452;2022-12-18T11:26:43;27.00;;;11.02;;
66353;SDS011;53150;48.296;16.452;2022-12-18T11:29:10;21.63;;;10.48;;
66353;SDS011;53150;48.296;16.452;2022-12-18T11:31:42;21.45;;;9.70;;
66353;SDS011;53150;48.296;16.452;2022-12-18T11:34:26;24.00;;;10.75;;
66353;SDS011;53150;48.296;16.452;2022-12-18T11:36:53;21.63;;;11.20;;
66353;SDS011;53150;48.296;16.452;2022-12-18T11:47:19;24.65;;;13.23;;
66353;SDS011;53150;48.296;16.452;2022-12-18T11:49:47;25.13;;;11.65;;
66353;SDS011;53150;48.296;16.452;2022-12-18T11:54:40;32.22;;;12.63;;
66353;SDS011;53150;48.296;16.452;2022-12-18T12:22:52;20.70;;;10.25;;
66353;SDS011;53150;48.296;16.452;2022-12-18T12:30:21;22.73;;;10.10;;
66353;SDS011;53150;48.296;16.452;2022-12-18T12:40:46;30.27;;;13.85;;
66353;SDS011;53150;48.296;16.452;2022-12-18T12:48:42;25.13;;;12.88;;
66353;SDS011;53150;48.296;16.452;2022-12-18T12:51:25;24.92;;;11.63;;
66353;SDS011;53150;48.296;16.452;2022-12-18T12:53:51;24.67;;;11.27;;
66353;SDS011;53150;48.296;16.452;2022-12-18T12:56:19;24.17;;;11.35;;
66353;SDS011;53150;48.296;16.452;2022-12-18T12:58:52;23.63;;;11.55;;
66353;SDS011;53150;48.296;16.452;2022-12-18T13:06:40;24.02;;;11.10;;
66353;SDS011;53150;48.296;16.452;2022-12-18T13:09:07;22.02;;;10.20;;
66353;SDS011;53150;48.296;16.452;2022-12-18T13:11:41;23.35;;;9.80;;
66353;SDS011;53150;48.296;16.452;2022-12-18T13:14:30;24.30;;;9.57;;
66353;SDS011;53150;48.296;16.452;2022-12-18T13:19:42;27.50;;;12.02;;
66353;SDS011;53150;48.296;16.452;2022-12-18T13:22:25;24.70;;;10.90;;
66353;SDS011;53150;48.296;16.452;2022-12-18T13:24:53;20.75;;;10.82;;
66353;SDS011;53150;48.296;16.452;2022-12-18T13:30:20;25.42;;;11.43;;
66353;SDS011;53150;48.296;16.452;2022-12-18T13:33:05;29.90;;;11.75;;
66353;SDS011;53150;48.296;16.452;2022-12-18T13:35:37;21.08;;;10.18;;
66353;SDS011;53150;48.296;16.452;2022-12-18T13:38:16;25.58;;;11.60;;
66353;SDS011;53150;48.296;16.452;2022-12-18T13:48:24;27.38;;;11.45;;
66353;SDS011;53150;48.296;16.452;2022-12-18T13:50:52;30.08;;;12.93;;
66353;SDS011;53150;48.296;16.452;2022-12-18T13:53:20;27.40;;;11.50;;
66353;SDS011;53150;48.296;16.452;2022-12-18T13:55:47;29.77;;;11.50;;
66353;SDS011;53150;48.296;16.452;2022-12-18T13:58:13;24.00;;;11.40;;
66353;SDS011;53150;48.296;16.452;2022-12-18T14:00:42;28.60;;;12.40;;
66353;SDS011;53150;48.296;16.452;2022-12-18T14:03:24;27.77;;;10.73;;
66353;SDS011;53150;48.296;16.452;2022-12-18T14:05:55;23.67;;;10.77;;
66353;SDS011;53150;48.296;16.452;2022-12-18T14:08:21;29.42;;;12.43;;
66353;SDS011;53150;48.296;16.452;2022-12-18T14:10:49;22.40;;;11.88;;
66353;SDS011;53150;48.296;16.452;2022-12-18T14:13:21;27.63;;;11.65;;
66353;SDS011;53150;48.296;16.452;2022-12-18T14:15:49;28.57;;;12.23;;
66353;SDS011;53150;48.296;16.452;2022-12-18T14:20:43;24.38;;;11.43;;
66353;SDS011;53150;48.296;16.452;2022-12-18T14:23:28;28.92;;;11.43;;
66353;SDS011;53150;48.296;16.452;2022-12-18T14:25:55;30.00;;;12.65;;
66353;SDS011;53150;48.296;16.452;2022-12-18T14:28:21;32.95;;;12.20;;
66353;SDS011;53150;48.296;16.452;2022-12-18T14:30:47;29.67;;;14.30;;
66353;SDS011;53150;48.296;16.452;2022-12-18T14:33:15;28.40;;;11.13;;
66353;SDS011;53150;48.296;16.452;2022-12-18T14:36:00;32.53;;;11.75;;
66353;SDS011;53150;48.296;16.452;2022-12-18T14:41:05;20.58;;;9.73;;
66353;SDS011;53150;48.296;16.452;2022-12-18T14:43:32;26.85;;;11.05;;
66353;SDS011;53150;48.296;16.452;2022-12-18T14:45:59;28.23;;;11.55;;
66353;SDS011;53150;48.296;16.452;2022-12-18T14:51:05;24.13;;;10.98;;
66353;SDS011;53150;48.296;16.452;2022-12-18T14:55:58;28.35;;;12.75;;
66353;SDS011;53150;48.296;16.452;2022-12-18T14:58:24;28.88;;;11.77;;
66353;SDS011;53150;48.296;16.452;2022-12-18T15:00:50;21.45;;;10.55;;
66353;SDS011;53150;48.296;16.452;2022-12-18T15:03:17;25.63;;;11.57;;
66353;SDS011;53150;48.296;16.452;2022-12-18T15:05:44;24.38;;;10.30;;
66353;SDS011;53150;48.296;16.452;2022-12-18T15:10:55;25.10;;;11.27;;
66353;SDS011;53150;48.296;16.452;2022-12-18T15:13:22;19.65;;;9.55;;
66353;SDS011;53150;48.296;16.452;2022-12-18T15:15:49;25.27;;;11.93;;
66353;SDS011;53150;48.296;16.452;2022-12-18T15:18:16;29.77;;;11.73;;
66353;SDS011;53150;48.296;16.452;2022-12-18T15:20:45;25.42;;;12.10;;
66353;SDS011;53150;48.296;16.452;2022-12-18T15:23:35;27.27;;;11.63;;
66353;SDS011;53150;48.296;16.452;2022-12-18T15:26:08;21.02;;;9.95;;
66353;SDS011;53150;48.296;16.452;2022-12-18T15:28:39;32.33;;;12.32;;
66353;SDS011;53150;48.296;16.452;2022-12-18T15:33:37;26.40;;;11.90;;
66353;SDS011;53150;48.296;16.452;2022-12-18T15:36:05;23.95;;;11.55;;
66353;SDS011;53150;48.296;16.452;2022-12-18T15:38:31;27.83;;;11.48;;
66353;SDS011;53150;48.296;16.452;2022-12-18T15:40:57;28.23;;;12.10;;
66353;SDS011;53150;48.296;16.452;2022-12-18T15:43:24;26.00;;;12.25;;
66353;SDS011;53150;48.296;16.452;2022-12-18T15:46:12;27.85;;;11.90;;
66353;SDS011;53150;48.296;16.452;2022-12-18T15:48:39;25.20;;;11.75;;
66353;SDS011;53150;48.296;16.452;2022-12-18T15:51:09;25.50;;;12.07;;
66353;SDS011;53150;48.296;16.452;2022-12-18T15:53:37;26.50;;;12.03;;
66353;SDS011;53150;48.296;16.452;2022-12-18T15:56:04;30.52;;;12.27;;
66353;SDS011;53150;48.296;16.452;2022-12-18T15:58:49;35.05;;;13.70;;
66353;SDS011;53150;48.296;16.452;2022-12-18T16:01:15;28.08;;;12.00;;
66353;SDS011;53150;48.296;16.452;2022-12-18T16:03:41;27.48;;;12.07;;
66353;SDS011;53150;48.296;16.452;2022-12-18T16:06:08;23.80;;;11.77;;
66353;SDS011;53150;48.296;16.452;2022-12-18T16:08:34;27.45;;;11.57;;
66353;SDS011;53150;48.296;16.452;2022-12-18T16:11:00;29.95;;;13.75;;
66353;SDS011;53150;48.296;16.452;2022-12-18T16:13:26;25.52;;;12.95;;
66353;SDS011;53150;48.296;16.452;2022-12-18T16:15:53;34.28;;;14.95;;
66353;SDS011;53150;48.296;16.452;2022-12-18T16:18:19;26.85;;;11.90;;
66353;SDS011;53150;48.296;16.452;2022-12-18T16:20:45;24.65;;;12.45;;
66353;SDS011;53150;48.296;16.452;2022-12-18T16:23:12;27.23;;;13.48;;
66353;SDS011;53150;48.296;16.452;2022-12-18T16:25:38;29.52;;;11.95;;